Time;durP1;ratioP1;P1;durP2;ratioP2;P2;SDS_P1;SDS_P2;PMS_P1;PMS_P2;Temp;Humidity;BMP_temperature;BMP_pressure;BME280_temperature;BME280_humidity;BME280_pressure;Samples;Min_cycle;Max_cycle;Signal;HPM_P1;HPM_P2
2023/01/19 00:01:23;;;;;;;9.52;5.53;;;-0.20;99.90;;;-2.05;100.00;99205.03;4993925;28;20057;-72
2023/01/19 00:03:49;;;;;;;9.85;5.65;;;-0.20;99.90;;;-2.09;100.00;99209.88;4994065;28;20046;-72
2023/01/19 00:06:16;;;;;;;11.07;5.25;;;-0.20;99.90;;;-2.09;100.00;99203.72;4993229;28;20049;-72
2023/01/19 00:08:47;;;;;;;12.02;5.60;;;-0.30;99.90;;;-2.05;100.00;99205.84;4993460;28;20045;-72
2023/01/19 00:11:13;;;;;;;13.60;6.38;;;-0.20;99.90;;;-2.11;100.00;99195.03;4994223;28;20042;-72
2023/01/19 00:13:39;;;;;;;10.73;5.50;;;-0.30;99.90;;;-2.08;100.00;99200.03;4998969;28;20026;-72
2023/01/19 00:16:08;;;;;;;11.07;5.95;;;-0.30;99.90;;;-2.06;100.00;99211.41;4993671;28;20145;-72
2023/01/19 00:18:33;;;;;;;13.15;5.97;;;-0.30;99.90;;;-2.09;100.00;99209.06;4993286;28;20065;-72
2023/01/19 00:20:59;;;;;;;11.73;5.28;;;-0.30;99.90;;;-1.94;100.00;99207.34;4993781;28;20042;-72
2023/01/19 00:23:25;;;;;;;9.45;5.07;;;-0.20;99.90;;;-1.81;100.00;99204.13;4993326;28;20034;-72
2023/01/19 00:25:50;;;;;;;11.32;6.10;;;0.00;99.90;;;-1.73;100.00;99197.94;4999998;28;20041;-72
2023/01/19 00:28:18;;;;;;;10.52;5.68;;;0.10;99.90;;;-1.65;100.00;99203.25;4993138;28;20099;-72
2023/01/19 00:30:44;;;;;;;11.32;6.22;;;0.10;99.90;;;-1.69;100.00;99201.91;4993312;28;20058;-72
2023/01/19 00:33:14;;;;;;;11.10;5.28;;;0.20;99.90;;;-1.64;100.00;99207.59;4993777;28;20030;-72
2023/01/19 00:35:43;;;;;;;11.90;5.93;;;0.20;99.90;;;-1.42;100.00;99209.69;5001627;28;20207;-72
2023/01/19 00:38:11;;;;;;;15.45;6.68;;;0.30;99.90;;;-1.33;100.00;99211.31;4996760;28;20039;-71
2023/01/19 00:40:37;;;;;;;12.48;5.68;;;0.50;99.90;;;-1.29;100.00;99201.09;5001329;28;20045;-72
2023/01/19 00:43:03;;;;;;;10.55;5.30;;;0.40;99.90;;;-1.26;100.00;99208.78;5002148;28;20390;-72
2023/01/19 00:45:29;;;;;;;14.18;5.65;;;0.50;99.90;;;-1.20;99.82;99208.06;5009828;28;20042;-72
2023/01/19 00:47:56;;;;;;;11.20;5.55;;;0.50;99.90;;;-1.18;99.28;99212.25;4997467;28;20046;-72
2023/01/19 00:50:27;;;;;;;12.52;5.55;;;0.60;99.90;;;-1.04;97.99;99216.03;4979095;28;20061;-71
2023/01/19 00:52:55;;;;;;;10.60;5.57;;;0.70;99.90;;;-1.03;97.45;99211.47;4996637;28;20053;-71
2023/01/19 00:55:22;;;;;;;14.10;5.20;;;0.80;99.90;;;-0.92;96.33;99223.63;4996764;28;20921;-71
2023/01/19 00:57:47;;;;;;;10.55;5.18;;;0.80;99.90;;;-0.95;95.90;99211.44;4996885;28;20488;-72
2023/01/19 01:00:21;;;;;;;9.30;4.85;;;0.80;99.90;;;-0.87;95.60;99213.22;4996377;28;20121;-72
2023/01/19 01:02:49;;;;;;;12.57;5.50;;;0.90;99.90;;;-0.93;96.14;99209.44;5003425;28;20034;-71
2023/01/19 01:05:15;;;;;;;10.23;5.03;;;0.90;99.90;;;-0.85;94.96;99207.69;4995073;28;20042;-73
2023/01/19 01:07:43;;;;;;;10.32;5.18;;;0.90;99.90;;;-0.90;95.07;99210.91;4996459;28;20049;-72
2023/01/19 01:10:16;;;;;;;10.13;5.70;;;0.90;99.90;;;-0.95;96.18;99210.59;4996884;28;20038;-72
2023/01/19 01:12:42;;;;;;;11.80;5.28;;;0.80;99.90;;;-0.84;95.17;99207.50;5000256;28;20169;-72
2023/01/19 01:15:11;;;;;;;9.18;4.50;;;0.90;99.90;;;-0.89;94.37;99205.38;4995993;28;20533;-72
2023/01/19 01:17:45;;;;;;;12.80;5.53;;;0.90;99.90;;;-0.87;94.60;99226.63;5016783;28;20044;-72
2023/01/19 01:20:25;;;;;;;11.02;6.03;;;0.90;99.90;;;-0.93;94.95;99217.47;4995447;28;20030;-71
2023/01/19 01:22:53;;;;;;;12.35;5.47;;;0.90;99.90;;;-0.88;94.23;99206.19;4995145;28;20041;-72
2023/01/19 01:25:22;;;;;;;8.15;5.00;;;0.90;99.90;;;-0.90;94.93;99211.75;5000331;28;20054;-72
2023/01/19 01:27:48;;;;;;;7.82;4.60;;;0.90;99.90;;;-0.91;94.64;99206.56;4994544;28;20040;-71
2023/01/19 01:30:17;;;;;;;9.85;5.38;;;0.90;99.90;;;-0.92;94.24;99227.16;5000937;28;20544;-72
2023/01/19 01:32:43;;;;;;;9.95;4.93;;;0.90;99.90;;;-0.92;94.49;99220.97;4995540;28;20034;-72
2023/01/19 01:35:10;;;;;;;12.55;6.22;;;0.90;99.90;;;-0.95;95.14;99232.03;4995858;28;20104;-72
2023/01/19 01:37:36;;;;;;;11.20;5.75;;;0.80;99.90;;;-0.99;95.22;99234.22;4995705;28;20100;-71
2023/01/19 01:40:04;;;;;;;10.32;4.90;;;0.80;99.90;;;-0.99;95.58;99236.06;5000233;28;20049;-71
2023/01/19 01:42:31;;;;;;;;;;;0.80;99.90;;;-1.06;96.20;99236.78;4996478;28;20038;-71
2023/01/19 01:45:03;;;;;;;9.68;4.95;;;0.70;99.90;;;-1.08;96.54;99221.91;4995218;28;19922;-72
2023/01/19 01:47:46;;;;;;;13.90;5.22;;;0.70;99.90;;;-1.07;96.10;99226.25;4995252;28;20034;-71
2023/01/19 01:50:20;;;;;;;8.38;4.68;;;0.70;99.90;;;-1.11;96.63;99230.28;4996254;28;20386;-71
2023/01/19 01:52:57;;;;;;;11.27;5.40;;;0.70;99.90;;;-1.09;96.60;99223.72;4995117;28;20088;-71
2023/01/19 01:55:28;;;;;;;7.93;4.80;;;0.70;99.90;;;-1.07;96.73;99221.69;4995348;28;20038;-72
2023/01/19 01:58:01;;;;;;;9.43;5.25;;;0.70;99.90;;;-1.07;96.56;99224.38;5009683;28;20034;-72
2023/01/19 02:02:49;;;;;;;9.73;5.35;;;0.70;99.90;;;-1.10;96.55;99219.38;4995493;28;20050;-72
2023/01/19 02:03:15;;;;;;;11.32;4.85;;;0.70;99.90;;;-1.19;97.29;99196.34;4995320;28;20532;-71
2023/01/19 02:05:43;;;;;;;11.35;5.15;;;0.70;99.90;;;-1.11;97.53;99216.91;4995110;28;20389;-71
2023/01/19 02:13:57;;;;;;;7.00;4.28;;;0.70;99.90;;;-1.04;97.45;99210.66;4994763;28;20459;-71
2023/01/19 02:16:23;;;;;;;11.70;5.22;;;0.70;99.90;;;-1.12;97.34;99209.88;4994699;28;20061;-71
2023/01/19 02:18:48;;;;;;;10.48;5.35;;;0.70;99.90;;;-1.10;98.25;99211.34;5000639;28;20030;-71
2023/01/19 02:21:37;;;;;;;11.30;5.40;;;0.70;99.90;;;-1.11;98.21;99200.84;4993622;28;20034;-72
2023/01/19 02:24:05;;;;;;;8.88;4.47;;;0.70;99.90;;;-1.09;97.96;99214.88;5004536;28;20037;-71
2023/01/19 02:26:39;;;;;;;9.70;5.80;;;0.70;99.90;;;-1.05;97.77;99238.44;5002234;28;20049;-70
2023/01/19 02:29:13;;;;;;;9.88;5.00;;;0.70;99.90;;;-1.02;97.54;99207.78;4994097;28;20038;-71
2023/01/19 02:31:40;;;;;;;10.95;5.32;;;0.80;99.90;;;-1.04;97.50;99212.50;5001626;28;20039;-71
2023/01/19 02:34:10;;;;;;;10.35;5.57;;;0.80;99.90;;;-1.03;97.92;99212.34;5003548;28;20048;-70
2023/01/19 02:36:52;;;;;;;11.38;5.45;;;0.80;99.90;;;-1.06;97.61;99230.59;5011435;28;20099;-72
2023/01/19 02:39:26;;;;;;;8.63;5.28;;;0.70;99.90;;;-1.05;97.56;99222.38;5007718;28;20034;-71
2023/01/19 02:42:00;;;;;;;8.52;4.25;;;0.70;99.90;;;-0.98;97.28;99205.63;5000194;28;20393;-72
2023/01/19 02:44:26;;;;;;;9.40;5.53;;;0.80;99.90;;;-0.93;97.15;99205.91;5006932;28;20053;-71
2023/01/19 02:46:56;;;;;;;12.25;5.57;;;0.90;99.90;;;-0.95;96.91;99197.22;5018751;28;20497;-71
2023/01/19 02:49:22;;;;;;;11.30;5.57;;;0.80;99.90;;;-0.94;96.98;99201.56;5006322;28;20033;-71
2023/01/19 02:51:48;;;;;;;12.05;4.88;;;0.90;99.90;;;-0.93;97.64;99197.88;5010915;28;20048;-70
2023/01/19 02:54:41;;;;;;;13.70;5.93;;;0.80;99.90;;;-0.94;97.29;99198.88;5006427;28;20035;-71
2023/01/19 02:58:04;;;;;;;8.30;4.13;;;0.90;99.90;;;-0.92;97.54;99215.59;5010032;28;20492;-70
2023/01/19 03:01:07;;;;;;;9.85;5.75;;;0.80;99.90;;;-0.99;98.11;99203.94;4994593;28;20035;-72
2023/01/19 03:04:23;;;;;;;12.93;5.75;;;0.80;99.90;;;-1.07;98.98;99208.31;5004402;28;20034;-72
2023/01/19 03:07:12;;;;;;;9.55;5.18;;;0.70;99.90;;;-1.02;98.27;99211.31;5008378;28;20049;-71
2023/01/19 03:10:26;;;;;;;10.10;4.60;;;0.70;99.90;;;-0.94;97.95;99207.75;5003672;28;20394;-72
2023/01/19 03:13:09;;;;;;;9.23;5.25;;;0.80;99.90;;;-0.97;98.78;99207.28;5005853;28;20038;-71
2023/01/19 03:15:51;;;;;;;10.45;5.47;;;0.80;99.90;;;-1.02;99.13;99229.22;5008856;28;20125;-72
2023/01/19 03:18:23;;;;;;;12.68;5.70;;;0.80;99.90;;;-1.07;98.79;99227.06;4998812;28;20041;-72
2023/01/19 03:20:54;;;;;;;11.07;5.43;;;0.70;99.90;;;-0.98;99.00;99230.53;5008834;28;20041;-72
2023/01/19 03:23:26;;;;;;;11.10;5.80;;;0.80;99.90;;;-1.06;100.00;99235.94;5010685;28;20370;-72
2023/01/19 03:25:56;;;;;;;10.52;5.65;;;0.70;99.90;;;-0.92;99.36;99231.66;5006406;28;20041;-71
2023/01/19 03:28:27;;;;;;;11.20;5.55;;;0.90;99.90;;;-0.92;98.97;99220.97;4986295;28;20045;-72
2023/01/19 03:31:09;;;;;;;8.55;5.13;;;0.90;99.90;;;-0.93;98.54;99214.78;5010513;28;20022;-72
2023/01/19 03:33:40;;;;;;;12.30;5.72;;;0.90;99.90;;;-0.88;99.20;99223.13;5000385;28;20505;-72
2023/01/19 03:36:19;;;;;;;11.63;6.15;;;0.90;99.90;;;-0.82;98.56;99242.97;4999004;28;20166;-71
2023/01/19 03:38:47;;;;;;;;;;;0.90;99.90;;;-0.77;97.74;99226.38;5008827;28;20048;-72
2023/01/19 03:41:16;;;;;;;9.50;4.80;;;1.00;99.90;;;-0.68;97.62;99221.81;5005723;28;20157;-71
2023/01/19 03:43:45;;;;;;;9.35;4.88;;;1.00;99.90;;;-0.64;97.48;99223.97;5009846;28;20046;-71
2023/01/19 03:46:16;;;;;;;11.15;5.28;;;1.10;99.90;;;-0.65;97.00;99218.78;5003730;28;20099;-71
2023/01/19 03:48:42;;;;;;;10.20;5.57;;;1.20;99.90;;;-0.59;96.57;99218.06;5005837;28;20026;-71
2023/01/19 03:51:09;;;;;;;11.82;5.53;;;1.20;99.90;;;-0.61;96.91;99215.56;5009513;28;20184;-71
2023/01/19 03:53:35;;;;;;;11.27;5.78;;;1.20;99.90;;;-0.63;96.41;99214.91;5005988;28;20038;-71
2023/01/19 03:56:02;;;;;;;8.07;5.13;;;1.20;99.90;;;-0.71;96.66;99225.66;5018294;28;20042;-71
2023/01/19 03:58:28;;;;;;;10.65;5.60;;;1.10;99.90;;;-0.76;98.00;99220.88;5005200;28;20052;-71
2023/01/19 04:00:53;;;;;;;10.07;5.70;;;1.00;99.90;;;-0.71;97.46;99222.16;4992056;28;20038;-72
2023/01/19 04:03:19;;;;;;;10.60;5.93;;;1.10;99.90;;;-0.66;96.90;99215.28;4993987;28;20441;-71
2023/01/19 04:05:45;;;;;;;9.77;5.63;;;1.10;99.90;;;-0.57;96.20;99220.56;5009511;28;20798;-71
2023/01/19 04:08:11;;;;;;;12.35;5.18;;;1.20;99.90;;;-0.50;95.67;99217.00;5009316;28;20038;-71
2023/01/19 04:10:37;;;;;;;10.15;5.38;;;1.30;99.90;;;-0.45;95.58;99211.06;5011775;28;20041;-71
2023/01/19 04:13:04;;;;;;;9.57;5.32;;;1.30;99.90;;;-0.48;96.12;99217.63;5004711;28;20398;-71
2023/01/19 04:15:30;;;;;;;14.73;5.53;;;1.30;99.90;;;-0.41;95.13;99211.56;5007434;28;20049;-71
2023/01/19 04:17:57;;;;;;;9.80;6.05;;;1.30;99.90;;;-0.43;95.21;99209.03;5009839;28;20101;-71
2023/01/19 04:20:25;;;;;;;10.85;6.05;;;1.40;99.90;;;-0.50;95.66;99208.94;5006606;28;20030;-71
2023/01/19 04:22:51;;;;;;;11.85;5.80;;;1.30;99.90;;;-0.46;96.39;99220.13;5012146;28;20038;-71
2023/01/19 04:25:17;;;;;;;11.95;5.32;;;1.30;99.90;;;-0.42;96.21;99215.25;5008484;28;20379;-70
2023/01/19 04:27:43;;;;;;;12.15;5.93;;;1.30;99.90;;;-0.41;95.53;99219.59;5007034;28;20512;-71
2023/01/19 04:30:09;;;;;;;15.00;5.75;;;1.40;99.90;;;-0.34;95.07;99221.38;5000727;28;20046;-70
2023/01/19 04:32:35;;;;;;;11.10;5.65;;;1.40;99.90;;;-0.37;95.60;99221.75;5002232;28;20038;-70
2023/01/19 04:35:01;;;;;;;11.65;6.20;;;1.40;99.90;;;-0.36;95.60;99222.56;5006884;28;20049;-70
2023/01/19 04:37:27;;;;;;;12.55;5.57;;;1.40;99.90;;;-0.31;95.36;99226.38;5006413;28;20042;-70
2023/01/19 04:39:53;;;;;;;10.23;5.90;;;1.50;99.90;;;-0.32;95.58;99223.88;5002437;28;20053;-70
2023/01/19 04:42:19;;;;;;;13.27;5.60;;;1.50;99.90;;;-0.25;94.49;99224.81;5007036;28;20398;-70
2023/01/19 04:44:45;;;;;;;9.93;5.72;;;1.50;99.90;;;-0.23;94.41;99230.84;5013851;28;20209;-70
2023/01/19 04:47:11;;;;;;;9.70;5.88;;;1.60;99.90;;;-0.21;94.60;99233.31;5003471;28;20046;-70
2023/01/19 04:49:36;;;;;;;9.32;5.50;;;1.60;99.90;;;-0.19;94.62;99217.88;5003425;28;20041;-71
2023/01/19 04:52:04;;;;;;;10.65;6.07;;;1.60;99.90;;;-0.23;94.52;99209.41;5010587;28;20046;-70
2023/01/19 04:54:30;;;;;;;11.25;5.03;;;1.60;99.90;;;-0.22;94.85;99213.75;5012275;28;20038;-71
2023/01/19 04:56:56;;;;;;;9.95;5.35;;;1.60;99.90;;;-0.15;94.31;99222.72;5007133;28;20109;-70
2023/01/19 04:59:22;;;;;;;13.00;5.90;;;1.60;99.90;;;-0.15;94.16;99213.81;5013493;28;20069;-71
2023/01/19 05:01:48;;;;;;;11.15;6.20;;;1.60;99.90;;;-0.15;94.13;99206.63;5003439;28;20113;-71
2023/01/19 05:04:13;;;;;;;12.73;6.35;;;1.60;99.90;;;-0.05;93.24;99210.88;5008891;28;20429;-70
2023/01/19 05:06:39;;;;;;;9.02;5.18;;;1.70;99.90;;;-0.09;93.98;99213.13;5012621;28;20107;-71
2023/01/19 05:09:07;;;;;;;11.85;5.95;;;1.70;99.90;;;-0.03;93.30;99207.00;5013017;28;20042;-70
2023/01/19 05:11:36;;;;;;;11.95;5.00;;;1.70;99.90;;;-0.04;93.13;99210.72;5009386;28;20040;-71
2023/01/19 05:14:02;;;;;;;10.30;5.32;;;1.70;99.90;;;0.03;92.82;99215.34;5002188;28;20069;-71
2023/01/19 05:16:28;;;;;;;10.52;5.43;;;1.80;99.90;;;-0.02;93.29;99216.72;5007637;28;20038;-70
2023/01/19 05:18:53;;;;;;;7.53;4.15;;;1.80;99.90;;;-0.01;93.64;99218.38;5003923;28;20149;-71
2023/01/19 05:21:19;;;;;;;9.38;5.00;;;1.80;99.90;;;-0.01;93.97;99220.22;4997292;28;20073;-71
2023/01/19 05:23:45;;;;;;;10.07;5.15;;;1.80;99.90;;;-0.02;93.31;99222.09;5012742;28;20108;-71
2023/01/19 05:26:11;;;;;;;7.38;4.85;;;1.80;99.90;;;-0.04;94.29;99218.75;5011724;28;20202;-71
2023/01/19 05:28:36;;;;;;;12.05;5.28;;;1.80;99.90;;;-0.04;94.86;99223.28;5012343;28;20141;-71
2023/01/19 05:31:03;;;;;;;9.25;4.95;;;1.80;99.90;;;0.01;93.46;99215.53;5007940;28;20048;-71
2023/01/19 05:33:29;;;;;;;11.07;5.00;;;1.80;99.90;;;0.02;93.75;99222.56;5006751;28;20084;-71
2023/01/19 05:35:55;;;;;;;8.40;5.10;;;1.80;99.90;;;0.04;93.95;99217.00;5012333;28;20474;-71
2023/01/19 05:38:21;;;;;;;9.70;5.40;;;1.80;99.90;;;0.05;93.81;99232.94;5012624;28;20042;-71
2023/01/19 05:40:47;;;;;;;9.20;4.93;;;1.80;99.90;;;0.05;94.03;99235.59;5008718;28;20413;-71
2023/01/19 05:43:14;;;;;;;9.90;5.43;;;1.80;99.90;;;0.03;93.84;99240.31;5010344;28;20045;-72
2023/01/19 05:45:40;;;;;;;8.90;5.20;;;1.80;99.90;;;0.04;94.15;99235.78;5011923;28;20041;-72
2023/01/19 05:48:07;;;;;;;8.63;5.32;;;1.80;99.90;;;0.09;93.33;99234.22;5012354;28;20038;-72
2023/01/19 05:50:33;;;;;;;8.60;5.05;;;1.80;99.90;;;0.06;94.70;99228.38;5016414;28;20186;-73
2023/01/19 05:53:00;;;;;;;8.93;5.45;;;1.80;99.90;;;-0.03;95.56;99228.47;5001787;28;20046;-72
2023/01/19 05:55:27;;;;;;;8.95;5.20;;;1.80;99.90;;;-0.02;95.96;99238.19;5006995;28;20112;-72
2023/01/19 05:57:53;;;;;;;11.23;5.53;;;1.80;99.90;;;0.03;95.75;99239.47;5009049;28;20478;-71
2023/01/19 06:00:19;;;;;;;11.07;5.40;;;1.80;99.90;;;0.03;95.94;99226.06;5002642;28;20096;-72
2023/01/19 06:02:47;;;;;;;9.65;5.32;;;1.80;99.90;;;0.02;96.40;99233.28;5012283;28;20057;-72
2023/01/19 06:05:12;;;;;;;;;;;1.80;99.90;;;0.04;96.15;99230.41;5006290;28;20563;-72
2023/01/19 06:07:38;;;;;;;11.07;5.40;;;1.80;99.90;;;0.01;96.05;99226.25;5006131;28;19921;-72
2023/01/19 06:10:05;;;;;;;12.38;5.18;;;1.80;99.90;;;-0.03;96.63;99225.78;4993998;28;20057;-72
2023/01/19 06:12:31;;;;;;;6.85;4.97;;;1.80;99.90;;;-0.03;96.52;99227.63;5006667;28;20044;-73
2023/01/19 06:14:57;;;;;;;14.13;5.90;;;1.70;99.90;;;-0.06;96.32;99218.09;5002602;28;20044;-72
2023/01/19 06:17:22;;;;;;;8.35;4.78;;;1.80;99.90;;;-0.06;96.40;99236.03;5011922;28;20390;-72
2023/01/19 06:19:48;;;;;;;7.97;5.00;;;1.70;99.90;;;0.00;96.24;99224.59;5009860;28;20044;-73
2023/01/19 06:22:14;;;;;;;9.05;4.80;;;1.80;99.90;;;0.01;95.43;99233.47;5007472;28;20030;-73
2023/01/19 06:24:40;;;;;;;8.38;4.60;;;1.80;99.90;;;0.09;94.85;99228.84;5007049;28;20100;-73
2023/01/19 06:27:05;;;;;;;9.30;4.57;;;1.80;99.90;;;0.14;94.36;99237.19;4995694;28;20052;-72
2023/01/19 06:29:31;;;;;;;8.52;4.90;;;1.90;99.90;;;0.13;93.94;99240.03;5007426;28;20505;-72
2023/01/19 06:31:57;;;;;;;10.93;5.57;;;1.90;99.90;;;0.13;94.56;99234.66;5011488;28;20042;-72
2023/01/19 06:34:27;;;;;;;9.02;4.95;;;1.90;99.90;;;0.14;93.92;99231.00;5008170;28;20030;-72
2023/01/19 06:36:57;;;;;;;8.43;4.75;;;1.90;99.90;;;0.12;94.11;99231.16;5001324;28;20033;-72
2023/01/19 06:39:23;;;;;;;12.27;4.90;;;1.90;99.90;;;0.14;94.61;99231.00;5010490;28;20042;-72
2023/01/19 06:41:49;;;;;;;9.07;5.10;;;1.90;99.90;;;0.11;94.36;99229.50;5006241;28;20382;-73
2023/01/19 06:44:15;;;;;;;10.80;5.25;;;1.90;99.90;;;0.12;93.91;99243.72;5011315;28;20049;-73
2023/01/19 06:46:41;;;;;;;13.75;5.28;;;1.90;99.90;;;0.11;93.84;99244.75;5011083;28;20103;-73
2023/01/19 06:49:07;;;;;;;10.43;5.25;;;1.90;99.90;;;0.17;92.95;99249.41;5004679;28;20594;-73
2023/01/19 06:51:33;;;;;;;10.73;4.47;;;1.90;99.90;;;0.20;93.14;99248.19;5009607;28;20038;-73
2023/01/19 06:53:59;;;;;;;8.73;5.20;;;1.90;99.90;;;0.18;92.64;99243.03;5007712;28;20141;-73
2023/01/19 06:56:25;;;;;;;10.27;5.15;;;1.90;99.90;;;0.23;92.51;99245.13;4999837;28;20046;-73
2023/01/19 06:58:52;;;;;;;9.80;4.97;;;2.00;99.90;;;0.22;92.67;99240.78;4999756;28;20429;-73
2023/01/19 07:01:18;;;;;;;8.85;3.95;;;2.00;99.90;;;0.24;92.33;99258.38;4999523;28;20046;-73
2023/01/19 07:03:44;;;;;;;8.93;5.10;;;2.00;99.90;;;0.23;92.13;99255.88;5007038;28;20025;-73
2023/01/19 07:06:10;;;;;;;8.15;4.75;;;2.00;99.90;;;0.25;92.09;99269.91;5010834;28;20122;-74
2023/01/19 07:08:37;;;;;;;9.52;4.97;;;2.00;99.90;;;0.22;92.26;99256.88;5004163;28;20048;-73
2023/01/19 07:11:06;;;;;;;8.73;5.03;;;2.00;99.90;;;0.28;91.00;99256.97;5016533;28;20030;-73
2023/01/19 07:13:34;;;;;;;9.35;4.35;;;2.00;99.90;;;0.30;91.12;99255.97;5006293;28;20045;-73
2023/01/19 07:16:08;;;;;;;;;;;2.00;99.90;;;0.31;90.91;99263.84;4993815;28;20037;-73
2023/01/19 07:18:39;;;;;;;10.70;4.78;;;2.10;99.90;;;0.32;91.00;99267.34;5005973;28;19917;-74
2023/01/19 07:21:06;;;;;;;8.07;4.13;;;2.10;99.90;;;0.29;90.90;99260.53;5013373;28;20042;-75
2023/01/19 07:23:32;;;;;;;8.52;4.45;;;2.10;99.90;;;0.30;91.33;99274.75;5007632;28;20027;-75
2023/01/19 07:26:01;;;;;;;9.13;4.80;;;2.00;99.90;;;0.27;91.00;99271.41;5005609;28;20038;-74
2023/01/19 07:28:29;;;;;;;7.75;4.55;;;2.00;99.90;;;0.32;90.36;99270.03;5005606;28;20154;-74
2023/01/19 07:30:56;;;;;;;;;;;2.10;99.90;;;0.33;90.49;99275.22;5004961;28;20045;-73
2023/01/19 07:33:23;;;;;;;8.45;4.75;;;2.10;99.90;;;0.36;89.93;99271.31;5010621;28;19971;-73
2023/01/19 07:35:50;;;;;;;10.43;5.07;;;2.10;99.90;;;0.35;89.80;99278.56;5004205;28;20041;-74
2023/01/19 07:38:17;;;;;;;8.98;4.20;;;2.10;99.90;;;0.39;89.92;99274.47;5005604;28;20117;-74
2023/01/19 07:40:47;;;;;;;10.17;4.63;;;2.10;99.90;;;0.36;90.45;99282.91;5010595;28;20042;-73
2023/01/19 07:43:14;;;;;;;9.13;4.70;;;2.10;99.90;;;0.34;90.42;99290.31;5002592;28;20358;-74
2023/01/19 07:45:40;;;;;;;11.00;4.90;;;2.10;99.90;;;0.37;90.66;99291.78;5011455;28;20038;-73
2023/01/19 07:48:06;;;;;;;8.43;3.92;;;2.10;99.90;;;0.41;91.03;99291.22;5010420;28;20379;-74
2023/01/19 07:50:32;;;;;;;7.78;3.97;;;2.10;99.90;;;0.47;89.70;99287.00;5000651;28;20038;-73
2023/01/19 07:53:05;;;;;;;8.00;4.43;;;2.20;99.90;;;0.47;88.85;99281.63;5010206;28;20038;-74
2023/01/19 07:55:31;;;;;;;8.18;4.53;;;2.20;99.90;;;0.56;88.87;99285.88;5008766;28;20116;-73
2023/01/19 07:57:57;;;;;;;10.93;4.85;;;2.30;99.90;;;0.56;89.25;99293.91;5010933;28;20054;-73
2023/01/19 08:00:24;;;;;;;9.20;4.68;;;2.30;99.90;;;0.64;88.05;99281.41;5014445;28;20044;-73
2023/01/19 08:02:58;;;;;;;6.97;4.10;;;2.40;99.90;;;0.65;87.75;99277.72;5008099;28;20120;-73
2023/01/19 08:05:24;;;;;;;8.18;3.95;;;2.40;99.90;;;0.70;86.96;99294.94;5005044;28;20053;-73
2023/01/19 08:07:50;;;;;;;9.40;4.40;;;2.40;99.90;;;0.69;87.30;99297.81;5002808;28;20490;-73
2023/01/19 08:10:16;;;;;;;11.35;4.18;;;2.50;99.90;;;0.68;87.75;99290.78;5022490;28;20041;-73
2023/01/19 08:12:42;;;;;;;9.10;4.32;;;2.40;99.90;;;0.67;87.63;99292.63;5022821;28;20034;-73
2023/01/19 08:15:10;;;;;;;8.43;4.50;;;2.40;99.90;;;0.73;87.24;99293.75;5023360;28;20378;-74
2023/01/19 08:17:37;;;;;;;10.68;4.80;;;2.50;99.90;;;0.79;86.57;99298.38;5008925;28;20033;-72
2023/01/19 08:20:03;;;;;;;9.98;4.50;;;2.50;99.90;;;0.86;86.48;99287.72;5008836;28;20044;-73
2023/01/19 08:22:29;;;;;;;11.27;4.32;;;2.60;99.90;;;0.84;86.36;99284.41;5007931;28;20038;-73
2023/01/19 08:24:54;;;;;;;8.80;4.45;;;2.60;99.90;;;0.80;86.18;99289.28;5008896;28;20037;-73
2023/01/19 08:27:20;;;;;;;8.93;4.20;;;2.60;99.90;;;0.78;86.85;99298.53;5022084;28;21785;-73
2023/01/19 08:29:46;;;;;;;9.50;3.80;;;2.50;99.90;;;0.75;87.00;99301.59;5005666;28;20034;-73
2023/01/19 08:32:12;;;;;;;8.68;4.63;;;2.50;99.90;;;0.63;87.44;99298.53;5009906;28;20099;-73
2023/01/19 08:34:37;;;;;;;8.82;4.25;;;2.50;99.90;;;0.61;88.05;99305.94;5008652;28;20113;-73
2023/01/19 08:37:03;;;;;;;10.90;6.32;;;2.40;99.90;;;0.59;87.20;99299.94;5009302;28;20500;-73
2023/01/19 08:39:29;;;;;;;9.25;4.15;;;2.40;99.90;;;0.60;87.27;99310.50;5009234;28;20048;-72
2023/01/19 08:41:55;;;;;;;8.38;4.10;;;2.40;99.90;;;0.61;87.92;99312.16;5005779;28;20703;-73
2023/01/19 08:44:21;;;;;;;7.55;4.25;;;2.40;99.90;;;0.61;87.39;99311.31;5009202;28;20054;-73
2023/01/19 08:46:46;;;;;;;7.55;4.53;;;2.40;99.90;;;0.57;88.66;99316.25;5004624;28;20497;-73
2023/01/19 08:49:12;;;;;;;8.20;4.35;;;2.40;99.90;;;0.56;88.71;99314.56;4999431;28;20124;-73
2023/01/19 08:51:38;;;;;;;8.55;4.15;;;2.30;99.90;;;0.56;88.34;99315.41;5003266;28;20033;-73
2023/01/19 08:54:04;;;;;;;7.70;4.28;;;2.30;99.90;;;0.65;87.23;99312.59;5004186;28;20038;-72
2023/01/19 08:56:30;;;;;;;9.57;3.88;;;2.40;99.90;;;0.76;87.55;99316.69;5011258;28;20042;-73
2023/01/19 08:58:56;;;;;;;10.98;4.65;;;2.50;99.90;;;0.78;87.12;99312.81;5009668;28;20389;-72
2023/01/19 09:01:22;;;;;;;11.27;4.80;;;2.50;99.90;;;0.84;86.36;99320.13;5013044;28;20038;-73
2023/01/19 09:03:48;;;;;;;7.95;4.65;;;2.60;99.90;;;0.87;86.02;99310.88;5018844;28;20107;-73
2023/01/19 09:06:17;;;;;;;11.98;4.60;;;2.60;99.90;;;0.92;86.06;99319.19;5009953;28;20124;-73
2023/01/19 09:08:43;;;;;;;7.95;4.28;;;2.70;99.90;;;0.92;86.12;99324.56;5012633;28;20049;-73
2023/01/19 09:11:11;;;;;;;7.72;4.22;;;2.70;99.90;;;0.96;85.09;99316.97;5009735;28;20125;-72
2023/01/19 09:13:37;;;;;;;10.27;4.53;;;2.70;99.90;;;0.92;85.32;99338.00;5004464;28;20039;-72
2023/01/19 09:16:03;;;;;;;8.73;4.35;;;2.70;99.90;;;0.94;85.77;99337.81;5007175;28;20042;-72
2023/01/19 09:18:29;;;;;;;7.95;4.57;;;2.70;99.90;;;0.91;87.14;99330.09;5004077;28;20093;-72
2023/01/19 09:20:56;;;;;;;6.28;3.53;;;2.70;99.90;;;0.85;87.41;99337.91;4992077;28;20026;-72
2023/01/19 09:23:22;;;;;;;7.70;4.20;;;2.60;99.90;;;0.82;88.65;99337.44;5000239;28;20034;-72
2023/01/19 09:25:54;;;;;;;7.63;4.25;;;2.60;99.90;;;0.91;89.67;99339.00;5009893;28;20054;-72
2023/01/19 09:28:20;;;;;;;9.57;4.32;;;2.70;99.90;;;0.98;89.04;99344.47;5018136;28;20129;-72
2023/01/19 09:30:45;;;;;;;9.60;3.85;;;2.70;99.90;;;1.10;89.21;99342.97;4997224;28;20097;-72
2023/01/19 09:33:15;;;;;;;7.78;4.15;;;2.80;99.90;;;1.03;88.00;99357.34;5003746;28;20056;-72
2023/01/19 09:35:43;;;;;;;7.10;4.25;;;2.80;99.90;;;1.04;89.86;99359.00;5008315;28;20038;-72
2023/01/19 09:38:10;;;;;;;9.70;4.57;;;2.80;99.90;;;0.93;90.41;99363.84;5007702;28;20100;-74
2023/01/19 09:40:48;;;;;;;7.60;3.90;;;2.70;99.90;;;0.95;90.78;99377.09;5016421;28;20037;-71
2023/01/19 09:43:41;;;;;;;6.45;3.90;;;2.70;99.90;;;0.94;90.83;99368.19;5007651;28;20065;-73
2023/01/19 09:46:21;;;;;;;9.20;4.70;;;2.70;99.90;;;0.93;91.41;99366.50;5010961;28;20506;-71
2023/01/19 09:48:52;;;;;;;8.73;4.43;;;2.70;99.90;;;0.84;92.32;99368.47;5008326;28;20116;-72
2023/01/19 09:51:30;;;;;;;7.55;4.70;;;2.60;99.90;;;0.67;94.16;99383.09;5010367;28;20081;-72
2023/01/19 09:54:06;;;;;;;7.90;4.15;;;2.50;99.90;;;0.67;95.01;99373.16;5008894;28;20041;-72
2023/01/19 09:56:32;;;;;;;7.88;4.35;;;2.50;99.90;;;0.69;95.65;99381.88;5012136;28;20030;-72
2023/01/19 09:58:59;;;;;;;6.70;4.30;;;2.50;99.90;;;0.61;97.09;99403.44;5012088;28;20053;-72
2023/01/19 10:01:58;;;;;;;9.97;5.07;;;2.40;99.90;;;0.53;99.29;99401.66;5004949;28;20482;-72
2023/01/19 10:04:49;;;;;;;8.50;4.75;;;2.30;99.90;;;0.56;100.00;99397.78;5011215;28;20046;-72
2023/01/19 10:07:43;;;;;;;7.03;4.50;;;2.30;99.90;;;0.55;100.00;99399.63;5001290;28;20050;-72
2023/01/19 10:10:24;;;;;;;10.52;4.65;;;2.30;99.90;;;0.57;100.00;99418.25;4998787;28;20182;-73
2023/01/19 10:13:23;;;;;;;8.40;5.18;;;2.30;99.90;;;0.46;100.00;99403.41;5008895;28;20045;-72
2023/01/19 10:16:09;;;;;;;8.93;5.43;;;2.30;99.90;;;0.35;100.00;99401.13;5000425;28;20482;-72
2023/01/19 10:18:46;;;;;;;9.25;5.68;;;2.10;99.90;;;0.35;100.00;99418.09;5007042;28;20494;-73
2023/01/19 10:21:22;;;;;;;11.70;5.90;;;2.10;99.90;;;0.25;100.00;99404.91;5004909;28;20038;-72
2023/01/19 10:24:00;;;;;;;10.45;6.00;;;2.10;99.90;;;0.24;100.00;99405.06;5000318;28;20401;-72
2023/01/19 10:26:40;;;;;;;9.52;5.75;;;2.00;99.90;;;0.18;100.00;99403.13;5003725;28;20041;-73
2023/01/19 10:29:18;;;;;;;8.68;5.57;;;2.00;99.90;;;0.27;100.00;99402.88;4993416;28;20038;-72
2023/01/19 10:31:46;;;;;;;8.98;5.40;;;2.00;99.90;;;0.28;100.00;99407.22;5007214;28;20034;-73
2023/01/19 10:34:18;;;;;;;10.15;5.57;;;2.00;99.90;;;0.17;100.00;99398.78;5006540;28;20068;-73
2023/01/19 10:36:48;;;;;;;9.98;5.95;;;1.90;99.90;;;-0.05;100.00;99394.06;5013807;28;20045;-73
2023/01/19 10:39:17;;;;;;;12.95;5.97;;;1.80;99.90;;;-0.13;100.00;99401.34;4998696;28;20034;-73
2023/01/19 10:41:50;;;;;;;10.23;6.15;;;1.70;99.90;;;-0.21;100.00;99397.69;5011214;28;20045;-72